Bell M. Shimada — WTED — position and weather

sailwx.info

Track history (hours):
 
Tides and Currents Weather Stations Pressure Air Temp Water Temp Dewpoint Dewpoint Depression Visibility Wind Speed Wind Dir Waves Ship Positions

Oceanographic research ship Bell M. Shimada (USA)

Last reported at 2017-Nov-13 02:00 UTC. Time now 2017-Dec-18 09:19 UTC.
Position N 36°11' W 122°08'.
Warning: this ship's position is 35 days out of date.

Length 58 m; draft 6.1 m.

Type: Other ship. MMSI: 369970147.

Date/timePositionNaut miles runAvg speedWind from/ knotsBaromVisibWave heightAir tempDewpointWater temp
2017-Nov-13 02:00N 36°11' W 122°08'4 8.6
2017-Nov-13 01:30N 36°07' W 122°05'4 8.1
2017-Nov-13 01:00N 36°04' W 122°03'4 8.2
2017-Nov-13 00:30N 36°00' W 122°00'42 8.3
2017-Nov-12 19:30N 35°25' W 121°34'610.7
2017-Nov-12 18:56N 35°19' W 121°30'511.2
2017-Nov-12 18:30N 35°15' W 121°27'1011.6
2017-Nov-12 17:37N 35°06' W 121°21'111.4
2017-Nov-12 17:30N 35°05' W 121°20'611.5
2017-Nov-12 17:00N 35°00' W 121°16'611.4
2017-Nov-12 16:31N 34°56' W 121°13'611.6
2017-Nov-12 16:00N 34°51' W 121°09'611.6
2017-Nov-12 15:30N 34°46' W 121°05'511.2
2017-Nov-12 15:01N 34°41' W 121°02'611.0
2017-Nov-12 14:30N 34°36' W 120°58'611.2
2017-Nov-12 14:00N 34°31' W 120°55'511.2
2017-Nov-12 13:31N 34°27' W 120°51'611.0
2017-Nov-12 13:00N 34°25' W 120°45'511.0
2017-Nov-12 12:30N 34°24' W 120°38'611.1
2017-Nov-12 12:01N 34°22' W 120°32'611.3
2017-Nov-12 11:30N 34°21' W 120°25'611.9
2017-Nov-12 11:00N 34°19' W 120°18'612.1
2017-Nov-12 10:30N 34°18' W 120°11'611.9
2017-Nov-12 10:00N 34°16' W 120°04'610.7
2017-Nov-12 09:30N 34°14' W 119°58'6 9.9
2017-Nov-12 08:55N 34°13' W 119°51'4 9.9
2017-Nov-12 08:29N 34°12' W 119°46'510.4
2017-Nov-12 08:00N 34°10' W 119°40'711.2
2017-Nov-12 07:22N 34°08' W 119°32'411.3
2017-Nov-12 07:00N 34°07' W 119°27'710.9
2017-Nov-12 06:22N 34°05' W 119°19'410.8
2017-Nov-12 06:00N 34°04' W 119°15'610.9
2017-Nov-12 05:29N 34°01' W 119°09'510.7
2017-Nov-12 05:00N 33°59' W 119°03'611.5
2017-Nov-12 04:30N 33°56' W 118°57'611.3
2017-Nov-12 04:00N 33°51' W 118°53'611.5
2017-Nov-12 03:30N 33°46' W 118°50'611.7
2017-Nov-12 02:58N 33°40' W 118°48'611.7
2017-Nov-12 02:30N 33°35' W 118°46'611.9
2017-Nov-12 02:00N 33°29' W 118°43'2611.6
2017-Nov-11 23:47N 33°12' W 118°21'1911.6
2017-Nov-11 22:09N 33°01' W 118°03'211.6
2017-Nov-11 22:00N 33°00' W 118°01'612.0
2017-Nov-11 21:30N 32°57' W 117°55'611.8
2017-Nov-11 21:00N 32°54' W 117°49'611.9
2017-Nov-11 20:30N 32°51' W 117°43'611.8
2017-Nov-11 20:00N 32°47' W 117°37'611.9
2017-Nov-11 19:30N 32°44' W 117°31'510.1
2017-Nov-11 19:00N 32°41' W 117°26'611.2
2017-Nov-11 18:28N 32°39' W 117°20'  
2017-Nov-08 15:20N 32°43' W 117°11'5 8.0
2017-Nov-08 14:40N 32°38' W 117°14'1 8.8
2017-Nov-08 14:30N 32°37' W 117°15'2 4.1
2017-Nov-08 14:01N 32°37' W 117°18'2 3.7
2017-Nov-08 13:31N 32°37' W 117°20'2 3.5
2017-Nov-08 13:01N 32°37' W 117°22'2 4.3
2017-Nov-08 12:30N 32°38' W 117°24'2 4.5
2017-Nov-08 12:00N 32°38' W 117°27'2 4.3
2017-Nov-08 11:31N 32°38' W 117°30'2 4.2
2017-Nov-08 11:01N 32°38' W 117°32'2 4.2
2017-Nov-08 10:31N 32°38' W 117°34'2 4.1
2017-Nov-08 10:01N 32°38' W 117°37'2 4.1
2017-Nov-08 09:30N 32°39' W 117°39'2 4.1
2017-Nov-08 09:00N 32°39' W 117°42'2 4.3
2017-Nov-08 08:30N 32°39' W 117°44'2 4.3
2017-Nov-08 08:01N 32°39' W 117°47'2 4.2
2017-Nov-08 07:31N 32°39' W 117°49'2 4.3
2017-Nov-08 07:01N 32°39' W 117°52'2 4.5
2017-Nov-08 06:31N 32°40' W 117°54'4 3.7
2017-Nov-08 05:30N 32°39' W 117°59'1 1.8
2017-Nov-08 04:53N 32°39' W 117°58'1 1.5
2017-Nov-08 04:30N 32°39' W 117°57'1 2.3
2017-Nov-08 04:01N 32°39' W 117°58'1 1.3
2017-Nov-08 03:30N 32°39' W 117°59'611.6
2017-Nov-08 03:00N 32°37' W 118°05'810.7
2017-Nov-08 02:17N 32°34' W 118°14'311.4
2017-Nov-08 02:00N 32°33' W 118°17'40 3.5
2017-Nov-07 14:21N 32°18' W 119°02'14 1.7
2017-Nov-07 06:08N 32°16' W 119°18'310.9
2017-Nov-07 05:54N 32°16' W 119°15'710.7
2017-Nov-07 05:14N 32°17' W 119°07'210.8
2017-Nov-07 05:00N 32°17' W 119°04'2 3.6
2017-Nov-07 04:31N 32°18' W 119°02'0 0.1
2017-Nov-07 04:00N 32°18' W 119°02'0 0.1
2017-Nov-07 03:28N 32°18' W 119°02'0 0.5
2017-Nov-07 03:00N 32°18' W 119°02'0 0.8
2017-Nov-07 02:28N 32°18' W 119°02'1 1.8
2017-Nov-07 02:00N 32°18' W 119°02'0 0.8
2017-Nov-07 01:30N 32°18' W 119°02'3 1.8
2017-Nov-06 23:41N 32°15' W 119°00'0 1.1
2017-Nov-06 23:29N 32°15' W 119°00'2 1.2
2017-Nov-06 22:05N 32°17' W 119°01'1 1.0
2017-Nov-06 21:20N 32°18' W 119°01'0 0.0
2017-Nov-06 20:55N 32°18' W 119°01'0 0.0
2017-Nov-06 20:29N 32°18' W 119°01'57 2.1
2017-Nov-05 17:42N 32°39' W 117°58'0 0.0
2017-Nov-05 15:54N 32°39' W 117°58'0 0.1
2017-Nov-05 15:05N 32°39' W 117°58'0 0.3
2017-Nov-05 14:44N 32°39' W 117°58'0 1.2
2017-Nov-05 14:29N 32°39' W 117°58'1 1.8
2017-Nov-05 13:59N 32°40' W 117°58'1 1.4
2017-Nov-05 13:30N 32°39' W 117°59'54 8.8
2017-Nov-05 07:22N 33°13' W 118°48'3 9.3
2017-Nov-05 07:00N 33°15' W 118°52'710.0
2017-Nov-05 06:19N 33°17' W 119°00'310.0
2017-Nov-05 06:01N 33°18' W 119°04'510.0
2017-Nov-05 05:30N 33°21' W 119°08'5 9.9
2017-Nov-05 05:01N 33°25' W 119°12'510.2
2017-Nov-05 04:31N 33°29' W 119°16'510.1
2017-Nov-05 04:01N 33°33' W 119°19'510.2
2017-Nov-05 03:30N 33°37' W 119°23'510.6
2017-Nov-05 03:01N 33°42' W 119°26'4 7.3
2017-Nov-05 02:30N 33°45' W 119°28'0 0.4
2017-Nov-05 02:01N 33°45' W 119°28'0 0.6
2017-Nov-05 01:31N 33°45' W 119°29'0 0.2
2017-Nov-05 01:00N 33°45' W 119°29'0 0.4
2017-Nov-05 00:30N 33°45' W 119°29'3 6.0
2017-Nov-05 00:01N 33°48' W 119°30'4 8.4
2017-Nov-04 23:30N 33°51' W 119°33'3 5.5
2017-Nov-04 23:00N 33°54' W 119°34'1 1.7
2017-Nov-04 22:30N 33°54' W 119°35'0 0.5
2017-Nov-04 22:00N 33°54' W 119°35'0 0.2
2017-Nov-04 21:31N 33°54' W 119°35'0 0.2
2017-Nov-04 21:00N 33°54' W 119°34'0 0.6
2017-Nov-04 20:31N 33°54' W 119°35'0 0.7
2017-Nov-04 20:00N 33°54' W 119°35'0 0.7
2017-Nov-04 19:30N 33°54' W 119°36'1 1.7
2017-Nov-04 18:58N 33°54' W 119°35'0 0.2
2017-Nov-04 18:31N 33°54' W 119°35'0 0.0
2017-Nov-04 18:00N 33°54' W 119°35'0 0.2
2017-Nov-04 17:29N 33°54' W 119°35'3 6.1
2017-Nov-04 17:00N 33°53' W 119°38'611.6
2017-Nov-04 16:30N 33°52' W 119°45'611.5
2017-Nov-04 16:00N 33°51' W 119°52'611.3
2017-Nov-04 15:29N 33°50' W 119°58'1010.9
2017-Nov-04 14:34N 33°48' W 120°10'111.1
2017-Nov-04 14:28N 33°48' W 120°12'511.5
2017-Nov-04 14:00N 33°47' W 120°18'611.5
2017-Nov-04 13:30N 33°46' W 120°25'611.8
2017-Nov-04 13:00N 33°44' W 120°32'611.8
2017-Nov-04 12:28N 33°43' W 120°39'612.1
2017-Nov-04 11:59N 33°42' W 120°46'611.8
2017-Nov-04 11:29N 33°41' W 120°53'612.2
2017-Nov-04 10:59N 33°40' W 120°60'612.4
2017-Nov-04 10:29N 33°39' W 121°07'612.4
2017-Nov-04 10:00N 33°38' W 121°14'612.2
2017-Nov-04 09:29N 33°36' W 121°22'612.0
2017-Nov-04 09:00N 33°35' W 121°29'612.3
2017-Nov-04 08:30N 33°34' W 121°36'612.2
2017-Nov-04 08:00N 33°34' W 121°43'41 2.2
2017-Nov-03 13:49N 33°29' W 122°32'  
Track history (hours):
 
Tides and Currents Weather Stations Pressure Air Temp Water Temp Dewpoint Dewpoint Depression Visibility Wind Speed Wind Dir Waves Ship Positions

Oceanographic research ship Bell M. Shimada (USA)

Last reported at 2017-Nov-13 02:00 UTC. Time now 2017-Dec-18 09:19 UTC.
Position N 36°11' W 122°08'.
Warning: this ship's position is 35 days out of date.

Length 58 m; draft 6.1 m.

Type: Other ship. MMSI: 369970147.

Date/timePositionNaut miles runAvg speedWind from/ knotsBaromVisibWave heightAir tempDewpointWater temp
2017-Nov-13 02:00N 36°11' W 122°08'4 8.6
2017-Nov-13 01:30N 36°07' W 122°05'4 8.1
2017-Nov-13 01:00N 36°04' W 122°03'4 8.2
2017-Nov-13 00:30N 36°00' W 122°00'42 8.3
2017-Nov-12 19:30N 35°25' W 121°34'610.7
2017-Nov-12 18:56N 35°19' W 121°30'511.2
2017-Nov-12 18:30N 35°15' W 121°27'1011.6
2017-Nov-12 17:37N 35°06' W 121°21'111.4
2017-Nov-12 17:30N 35°05' W 121°20'611.5
2017-Nov-12 17:00N 35°00' W 121°16'611.4
2017-Nov-12 16:31N 34°56' W 121°13'611.6
2017-Nov-12 16:00N 34°51' W 121°09'611.6
2017-Nov-12 15:30N 34°46' W 121°05'511.2
2017-Nov-12 15:01N 34°41' W 121°02'611.0
2017-Nov-12 14:30N 34°36' W 120°58'611.2
2017-Nov-12 14:00N 34°31' W 120°55'511.2
2017-Nov-12 13:31N 34°27' W 120°51'611.0
2017-Nov-12 13:00N 34°25' W 120°45'511.0
2017-Nov-12 12:30N 34°24' W 120°38'611.1
2017-Nov-12 12:01N 34°22' W 120°32'611.3
2017-Nov-12 11:30N 34°21' W 120°25'611.9
2017-Nov-12 11:00N 34°19' W 120°18'612.1
2017-Nov-12 10:30N 34°18' W 120°11'611.9
2017-Nov-12 10:00N 34°16' W 120°04'610.7
2017-Nov-12 09:30N 34°14' W 119°58'6 9.9
2017-Nov-12 08:55N 34°13' W 119°51'4 9.9
2017-Nov-12 08:29N 34°12' W 119°46'510.4
2017-Nov-12 08:00N 34°10' W 119°40'711.2
2017-Nov-12 07:22N 34°08' W 119°32'411.3
2017-Nov-12 07:00N 34°07' W 119°27'710.9
2017-Nov-12 06:22N 34°05' W 119°19'410.8
2017-Nov-12 06:00N 34°04' W 119°15'610.9
2017-Nov-12 05:29N 34°01' W 119°09'510.7
2017-Nov-12 05:00N 33°59' W 119°03'611.5
2017-Nov-12 04:30N 33°56' W 118°57'611.3
2017-Nov-12 04:00N 33°51' W 118°53'611.5
2017-Nov-12 03:30N 33°46' W 118°50'611.7
2017-Nov-12 02:58N 33°40' W 118°48'611.7
2017-Nov-12 02:30N 33°35' W 118°46'611.9
2017-Nov-12 02:00N 33°29' W 118°43'2611.6
2017-Nov-11 23:47N 33°12' W 118°21'1911.6
2017-Nov-11 22:09N 33°01' W 118°03'211.6
2017-Nov-11 22:00N 33°00' W 118°01'612.0
2017-Nov-11 21:30N 32°57' W 117°55'611.8
2017-Nov-11 21:00N 32°54' W 117°49'611.9
2017-Nov-11 20:30N 32°51' W 117°43'611.8
2017-Nov-11 20:00N 32°47' W 117°37'611.9
2017-Nov-11 19:30N 32°44' W 117°31'510.1
2017-Nov-11 19:00N 32°41' W 117°26'611.2
2017-Nov-11 18:28N 32°39' W 117°20'  
2017-Nov-08 15:20N 32°43' W 117°11'5 8.0
2017-Nov-08 14:40N 32°38' W 117°14'1 8.8
2017-Nov-08 14:30N 32°37' W 117°15'2 4.1
2017-Nov-08 14:01N 32°37' W 117°18'2 3.7
2017-Nov-08 13:31N 32°37' W 117°20'2 3.5
2017-Nov-08 13:01N 32°37' W 117°22'2 4.3
2017-Nov-08 12:30N 32°38' W 117°24'2 4.5
2017-Nov-08 12:00N 32°38' W 117°27'2 4.3
2017-Nov-08 11:31N 32°38' W 117°30'2 4.2
2017-Nov-08 11:01N 32°38' W 117°32'2 4.2
2017-Nov-08 10:31N 32°38' W 117°34'2 4.1
2017-Nov-08 10:01N 32°38' W 117°37'2 4.1
2017-Nov-08 09:30N 32°39' W 117°39'2 4.1
2017-Nov-08 09:00N 32°39' W 117°42'2 4.3
2017-Nov-08 08:30N 32°39' W 117°44'2 4.3
2017-Nov-08 08:01N 32°39' W 117°47'2 4.2
2017-Nov-08 07:31N 32°39' W 117°49'2 4.3
2017-Nov-08 07:01N 32°39' W 117°52'2 4.5
2017-Nov-08 06:31N 32°40' W 117°54'4 3.7
2017-Nov-08 05:30N 32°39' W 117°59'1 1.8
2017-Nov-08 04:53N 32°39' W 117°58'1 1.5
2017-Nov-08 04:30N 32°39' W 117°57'1 2.3
2017-Nov-08 04:01N 32°39' W 117°58'1 1.3
2017-Nov-08 03:30N 32°39' W 117°59'611.6
2017-Nov-08 03:00N 32°37' W 118°05'810.7
2017-Nov-08 02:17N 32°34' W 118°14'311.4
2017-Nov-08 02:00N 32°33' W 118°17'40 3.5
2017-Nov-07 14:21N 32°18' W 119°02'14 1.7
2017-Nov-07 06:08N 32°16' W 119°18'310.9
2017-Nov-07 05:54N 32°16' W 119°15'710.7
2017-Nov-07 05:14N 32°17' W 119°07'210.8
2017-Nov-07 05:00N 32°17' W 119°04'2 3.6
2017-Nov-07 04:31N 32°18' W 119°02'0 0.1
2017-Nov-07 04:00N 32°18' W 119°02'0 0.1
2017-Nov-07 03:28N 32°18' W 119°02'0 0.5
2017-Nov-07 03:00N 32°18' W 119°02'0 0.8
2017-Nov-07 02:28N 32°18' W 119°02'1 1.8
2017-Nov-07 02:00N 32°18' W 119°02'0 0.8
2017-Nov-07 01:30N 32°18' W 119°02'3 1.8
2017-Nov-06 23:41N 32°15' W 119°00'0 1.1
2017-Nov-06 23:29N 32°15' W 119°00'2 1.2
2017-Nov-06 22:05N 32°17' W 119°01'1 1.0
2017-Nov-06 21:20N 32°18' W 119°01'0 0.0
2017-Nov-06 20:55N 32°18' W 119°01'0 0.0
2017-Nov-06 20:29N 32°18' W 119°01'57 2.1
2017-Nov-05 17:42N 32°39' W 117°58'0 0.0
2017-Nov-05 15:54N 32°39' W 117°58'0 0.1
2017-Nov-05 15:05N 32°39' W 117°58'0 0.3
2017-Nov-05 14:44N 32°39' W 117°58'0 1.2
2017-Nov-05 14:29N 32°39' W 117°58'1 1.8
2017-Nov-05 13:59N 32°40' W 117°58'1 1.4
2017-Nov-05 13:30N 32°39' W 117°59'54 8.8
2017-Nov-05 07:22N 33°13' W 118°48'3 9.3
2017-Nov-05 07:00N 33°15' W 118°52'710.0
2017-Nov-05 06:19N 33°17' W 119°00'310.0
2017-Nov-05 06:01N 33°18' W 119°04'510.0
2017-Nov-05 05:30N 33°21' W 119°08'5 9.9
2017-Nov-05 05:01N 33°25' W 119°12'510.2
2017-Nov-05 04:31N 33°29' W 119°16'510.1
2017-Nov-05 04:01N 33°33' W 119°19'510.2
2017-Nov-05 03:30N 33°37' W 119°23'510.6
2017-Nov-05 03:01N 33°42' W 119°26'4 7.3
2017-Nov-05 02:30N 33°45' W 119°28'0 0.4
2017-Nov-05 02:01N 33°45' W 119°28'0 0.6
2017-Nov-05 01:31N 33°45' W 119°29'0 0.2
2017-Nov-05 01:00N 33°45' W 119°29'0 0.4
2017-Nov-05 00:30N 33°45' W 119°29'3 6.0
2017-Nov-05 00:01N 33°48' W 119°30'4 8.4
2017-Nov-04 23:30N 33°51' W 119°33'3 5.5
2017-Nov-04 23:00N 33°54' W 119°34'1 1.7
2017-Nov-04 22:30N 33°54' W 119°35'0 0.5
2017-Nov-04 22:00N 33°54' W 119°35'0 0.2
2017-Nov-04 21:31N 33°54' W 119°35'0 0.2
2017-Nov-04 21:00N 33°54' W 119°34'0 0.6
2017-Nov-04 20:31N 33°54' W 119°35'0 0.7
2017-Nov-04 20:00N 33°54' W 119°35'0 0.7
2017-Nov-04 19:30N 33°54' W 119°36'1 1.7
2017-Nov-04 18:58N 33°54' W 119°35'0 0.2
2017-Nov-04 18:31N 33°54' W 119°35'0 0.0
2017-Nov-04 18:00N 33°54' W 119°35'0 0.2
2017-Nov-04 17:29N 33°54' W 119°35'3 6.1
2017-Nov-04 17:00N 33°53' W 119°38'611.6
2017-Nov-04 16:30N 33°52' W 119°45'611.5
2017-Nov-04 16:00N 33°51' W 119°52'611.3
2017-Nov-04 15:29N 33°50' W 119°58'1010.9
2017-Nov-04 14:34N 33°48' W 120°10'111.1
2017-Nov-04 14:28N 33°48' W 120°12'511.5
2017-Nov-04 14:00N 33°47' W 120°18'611.5
2017-Nov-04 13:30N 33°46' W 120°25'611.8
2017-Nov-04 13:00N 33°44' W 120°32'611.8
2017-Nov-04 12:28N 33°43' W 120°39'612.1
2017-Nov-04 11:59N 33°42' W 120°46'611.8
2017-Nov-04 11:29N 33°41' W 120°53'612.2
2017-Nov-04 10:59N 33°40' W 120°60'612.4
2017-Nov-04 10:29N 33°39' W 121°07'612.4
2017-Nov-04 10:00N 33°38' W 121°14'612.2
2017-Nov-04 09:29N 33°36' W 121°22'612.0
2017-Nov-04 09:00N 33°35' W 121°29'612.3
2017-Nov-04 08:30N 33°34' W 121°36'612.2
2017-Nov-04 08:00N 33°34' W 121°43'41 2.2
2017-Nov-03 13:49N 33°29' W 122°32'  

Dump ship's entire track history